Time;durP1;ratioP1;P1;durP2;ratioP2;P2;SDS_P1;SDS_P2;PMS_P1;PMS_P2;Temp;Humidity;BMP_temperature;BMP_pressure;BME280_temperature;BME280_humidity;BME280_pressure;Samples;Min_cycle;Max_cycle;Signal;HPM_P1;HPM_P2
2022/06/05 00:00:20;;;;;;;33.85;15.10;;;;;;;19.14;90.45;101373.75;5073970;28;20037;-77
2022/06/05 00:03:21;;;;;;;36.15;16.55;;;;;;;19.06;90.78;101358.78;5072695;28;20033;-77
2022/06/05 00:05:54;;;;;;;26.67;15.38;;;;;;;19.05;90.87;101362.59;5076607;28;20047;-77
2022/06/05 00:08:35;;;;;;;30.50;15.50;;;;;;;19.01;90.96;101366.72;5060866;28;20028;-77
2022/06/05 00:11:02;;;;;;;31.45;15.38;;;;;;;18.93;91.36;101352.81;5090766;28;20032;-77
2022/06/05 00:13:49;;;;;;;25.90;14.82;;;;;;;18.92;91.75;101349.16;5063468;28;20062;-77
2022/06/05 00:16:16;;;;;;;30.98;15.98;;;;;;;18.84;92.67;101353.78;5077748;28;20067;-77
2022/06/05 00:18:42;;;;;;;28.27;15.65;;;;;;;18.84;92.42;101345.44;5089520;28;20035;-77
2022/06/05 00:21:09;;;;;;;28.00;15.93;;;;;;;18.79;93.03;101337.59;5087583;28;20044;-77
2022/06/05 00:23:36;;;;;;;35.28;16.73;;;;;;;18.87;92.68;101334.03;5072593;28;20036;-76
2022/06/05 00:26:15;;;;;;;31.25;16.65;;;;;;;18.77;93.16;101331.31;5082058;28;20138;-77
2022/06/05 00:28:41;;;;;;;32.40;17.10;;;;;;;18.72;93.77;101328.19;5068956;28;20103;-77
2022/06/05 00:31:25;;;;;;;32.17;16.83;;;;;;;18.66;94.04;101328.81;5081500;28;20123;-77
2022/06/05 00:33:50;;;;;;;33.53;17.35;;;;;;;18.64;94.51;101333.66;5071420;28;20035;-77
2022/06/05 00:36:26;;;;;;;36.00;17.35;;;;;;;18.62;94.32;101335.75;5077878;28;20479;-77
2022/06/05 00:39:09;;;;;;;42.53;17.92;;;;;;;18.61;94.67;101325.66;5086765;28;21921;-77
2022/06/05 00:41:58;;;;;;;31.63;17.63;;;;;;;18.54;95.46;101331.00;5075744;28;20373;-77
2022/06/05 00:44:30;;;;;;;32.67;17.27;;;;;;;18.50;95.46;101326.81;5084043;28;20124;-77
2022/06/05 00:46:57;;;;;;;35.65;18.42;;;;;;;18.46;95.52;101328.16;5080519;28;20475;-77
2022/06/05 00:49:29;;;;;;;33.70;17.00;;;;;;;18.44;96.36;101324.69;5077065;28;20033;-77
2022/06/05 00:51:55;;;;;;;28.33;16.57;;;;;;;18.38;96.09;101317.88;5082603;28;20017;-77
2022/06/05 00:54:20;;;;;;;31.58;16.60;;;;;;;18.45;96.00;101320.91;5069870;28;20036;-77
2022/06/05 00:56:46;;;;;;;34.85;17.55;;;;;;;18.43;96.18;101325.72;5069390;28;20083;-77
2022/06/05 00:59:12;;;;;;;37.15;18.95;;;;;;;18.39;96.29;101313.22;5057731;28;20044;-77
2022/06/05 01:01:42;;;;;;;37.45;19.25;;;;;;;18.31;96.66;101314.88;5074509;28;20464;-77
2022/06/05 01:04:08;;;;;;;38.58;17.85;;;;;;;18.24;97.77;101315.72;5096020;28;20112;-77
2022/06/05 01:06:34;;;;;;;40.65;19.85;;;;;;;18.21;97.17;101316.88;5065837;28;20480;-76
2022/06/05 01:08:59;;;;;;;34.92;19.00;;;;;;;18.24;96.98;101318.47;5076386;28;20043;-75
2022/06/05 01:11:44;;;;;;;39.08;20.52;;;;;;;18.22;97.60;101318.63;5089019;28;20040;-75
2022/06/05 01:14:40;;;;;;;42.13;20.98;;;;;;;18.19;97.85;101311.50;5091480;28;20115;-76
2022/06/05 01:17:20;;;;;;;43.78;21.52;;;;;;;18.10;98.14;101315.25;5025378;28;20044;-76
2022/06/05 01:20:10;;;;;;;50.38;22.33;;;;;;;18.17;97.80;101305.25;5085678;28;20393;-76
2022/06/05 01:23:07;;;;;;;47.60;22.15;;;;;;;18.08;98.65;101303.44;5085895;28;20032;-76
2022/06/05 01:25:48;;;;;;;46.65;21.20;;;;;;;18.08;98.92;101288.72;5074160;28;20062;-76
2022/06/05 01:28:20;;;;;;;41.97;21.90;;;;;;;18.04;99.23;101282.63;5092375;28;20059;-76
2022/06/05 01:30:53;;;;;;;46.17;22.55;;;;;;;17.99;99.03;101276.69;5081328;28;20045;-75
2022/06/05 01:33:24;;;;;;;41.70;20.77;;;;;;;18.02;98.80;101276.38;5067567;28;20426;-76
2022/06/05 01:36:22;;;;;;;43.53;21.52;;;;;;;17.93;99.61;101269.88;5058484;28;20056;-76
2022/06/05 01:39:19;;;;;;;44.25;21.20;;;;;;;17.86;99.70;101268.75;5078270;28;20083;-76
2022/06/05 01:41:57;;;;;;;46.33;22.85;;;;;;;17.88;99.63;101260.31;5084779;28;20527;-76
2022/06/05 01:44:36;;;;;;;41.00;21.45;;;;;;;17.76;100.00;101270.75;5076977;28;20043;-76
2022/06/05 01:47:14;;;;;;;44.35;21.40;;;;;;;17.81;100.00;101273.91;5079938;28;20495;-76
2022/06/05 01:49:47;;;;;;;39.15;20.38;;;;;;;17.81;100.00;101274.75;5080894;28;20027;-76
2022/06/05 01:52:16;;;;;;;61.17;19.83;;;;;;;17.85;100.00;101283.63;5095638;28;20111;-76
2022/06/05 01:54:59;;;;;;;38.33;20.40;;;;;;;17.86;99.88;101287.28;5068097;28;20024;-76
2022/06/05 01:57:26;;;;;;;41.38;19.50;;;;;;;17.88;100.00;101280.56;5091652;28;20036;-76
2022/06/05 01:59:58;;;;;;;36.22;19.48;;;;;;;17.88;100.00;101274.16;5065470;28;20033;-75
2022/06/05 02:02:28;;;;;;;35.83;20.40;;;;;;;17.81;100.00;101272.00;5088597;28;20514;-76
2022/06/05 02:05:05;;;;;;;49.83;19.70;;;;;;;17.79;100.00;101265.75;5077880;28;20037;-76
2022/06/05 02:07:39;;;;;;;39.70;19.80;;;;;;;17.78;100.00;101252.91;5075113;28;20038;-76
2022/06/05 02:10:10;;;;;;;34.90;19.48;;;;;;;17.73;100.00;101249.75;5080759;28;20087;-76
2022/06/05 02:12:36;;;;;;;40.90;20.02;;;;;;;17.65;100.00;101230.28;5082597;28;20532;-76
2022/06/05 02:15:03;;;;;;;34.28;19.95;;;;;;;17.68;100.00;101218.03;5077766;28;20032;-76
2022/06/05 02:17:30;;;;;;;46.90;20.48;;;;;;;17.71;100.00;101220.47;5088350;28;20046;-76
2022/06/05 02:19:59;;;;;;;42.08;19.60;;;;;;;17.67;100.00;101211.63;5081079;28;20033;-76
2022/06/05 02:22:33;;;;;;;36.60;18.52;;;;;;;17.60;100.00;101203.06;5075607;28;20024;-76
2022/06/05 02:24:58;;;;;;;33.20;19.52;;;;;;;17.56;100.00;101192.47;5095263;28;20032;-75
2022/06/05 02:27:25;;;;;;;44.03;20.65;;;;;;;17.53;100.00;101192.78;5069726;28;20340;-75
2022/06/05 02:29:54;;;;;;;40.33;20.40;;;;;;;17.57;100.00;101186.78;5078092;28;20044;-75
2022/06/05 02:32:37;;;;;;;38.60;20.83;;;;;;;17.53;100.00;101188.13;5090047;28;20024;-75
2022/06/05 02:35:21;;;;;;;37.45;19.33;;;;;;;17.47;100.00;101183.22;5076262;28;20047;-76
2022/06/05 02:38:19;;;;;;;34.33;19.30;;;;;;;17.43;100.00;101181.78;5084601;28;20032;-76
2022/06/05 02:41:24;;;;;;;34.65;18.55;;;;;;;17.49;100.00;101170.09;5073092;28;20036;-76
2022/06/05 02:44:29;;;;;;;45.95;18.98;;;;;;;17.48;100.00;101171.13;5088660;28;20399;-76
2022/06/05 02:47:13;;;;;;;40.72;18.65;;;;;;;17.45;100.00;101164.00;5081536;28;20040;-75
2022/06/05 02:49:58;;;;;;;40.08;18.35;;;;;;;17.46;100.00;101162.09;5078439;28;20090;-76
2022/06/05 02:52:24;;;;;;;38.63;18.10;;;;;;;17.44;100.00;101153.94;5094030;28;20036;-76
2022/06/05 02:55:01;;;;;;;37.83;18.20;;;;;;;17.40;100.00;101160.00;5073028;28;20040;-76
2022/06/05 02:57:26;;;;;;;43.65;18.85;;;;;;;17.34;100.00;101144.88;5089941;28;20042;-76
2022/06/05 02:59:52;;;;;;;36.80;18.50;;;;;;;17.41;100.00;101148.75;5073291;28;20040;-76
2022/06/05 03:05:01;;;;;;;39.05;19.42;;;;;;;17.40;100.00;101147.00;5075271;28;20153;-77
2022/06/05 03:07:27;;;;;;;39.55;19.25;;;;;;;17.30;100.00;101146.22;5075482;28;20054;-75
2022/06/05 03:09:52;;;;;;;41.33;19.13;;;;;;;17.31;100.00;101147.09;5073320;28;20048;-75
2022/06/05 03:12:18;;;;;;;44.50;18.77;;;;;;;17.29;100.00;101146.38;5078641;28;20032;-76
2022/06/05 03:14:43;;;;;;;33.38;18.95;;;;;;;17.34;100.00;101142.09;5073075;28;20040;-74
2022/06/05 03:17:09;;;;;;;42.58;19.65;;;;;;;17.32;100.00;101146.94;5082936;28;20139;-77
2022/06/05 03:19:34;;;;;;;37.72;18.85;;;;;;;17.30;100.00;101135.16;5070166;28;20371;-75
2022/06/05 03:21:59;;;;;;;32.55;17.50;;;;;;;17.36;100.00;101136.41;5072530;28;21017;-75
2022/06/05 03:24:25;;;;;;;36.40;17.80;;;;;;;17.27;100.00;101136.34;5062172;28;20032;-76
2022/06/05 03:26:51;;;;;;;37.00;18.70;;;;;;;17.26;100.00;101125.41;5074824;28;20048;-76
2022/06/05 03:29:16;;;;;;;31.27;17.33;;;;;;;17.24;100.00;101122.81;5086672;28;20484;-76
2022/06/05 03:31:42;;;;;;;36.75;18.08;;;;;;;17.23;100.00;101121.09;5080209;28;20128;-76
2022/06/05 03:34:08;;;;;;;32.45;18.23;;;;;;;17.15;100.00;101117.34;5076188;28;20186;-76
2022/06/05 03:36:34;;;;;;;30.90;16.50;;;;;;;17.14;100.00;101110.97;5069192;28;20075;-76
2022/06/05 03:38:59;;;;;;;46.63;18.45;;;;;;;17.12;100.00;101121.31;5082881;28;20036;-76
2022/06/05 03:41:25;;;;;;;43.00;18.85;;;;;;;17.13;100.00;101119.41;5074262;28;20036;-76
2022/06/05 03:43:50;;;;;;;38.25;17.85;;;;;;;17.11;100.00;101129.78;5077954;28;20037;-76
2022/06/05 03:46:16;;;;;;;36.80;17.05;;;;;;;17.11;100.00;101124.25;5074492;28;20495;-77
2022/06/05 03:48:42;;;;;;;42.75;17.55;;;;;;;17.02;100.00;101129.69;5093316;28;20032;-76
2022/06/05 03:51:14;;;;;;;36.65;18.33;;;;;;;17.07;99.34;101134.75;5090181;28;20042;-76
2022/06/05 03:53:39;;;;;;;35.38;18.13;;;;;;;17.10;99.28;101137.19;5078595;28;20544;-77
2022/06/05 03:56:14;;;;;;;40.45;17.65;;;;;;;17.01;100.00;101138.16;5072212;28;20020;-76
2022/06/05 03:58:40;;;;;;;39.10;18.33;;;;;;;17.05;100.00;101134.91;5088147;28;20033;-75
2022/06/05 04:01:08;;;;;;;38.58;18.80;;;;;;;17.00;99.82;101133.63;5079782;28;20796;-76
2022/06/05 04:03:35;;;;;;;39.15;18.75;;;;;;;16.89;100.00;101127.31;5087885;28;20044;-76
2022/06/05 04:06:05;;;;;;;45.08;17.48;;;;;;;16.87;100.00;101123.84;5075877;28;20487;-76
2022/06/05 04:08:30;;;;;;;35.90;17.00;;;;;;;16.90;99.92;101112.47;5056685;28;20333;-76
2022/06/05 04:10:56;;;;;;;33.55;16.65;;;;;;;16.86;100.00;101115.69;5068262;28;20149;-76
2022/06/05 04:13:21;;;;;;;41.63;17.30;;;;;;;16.88;100.00;101108.97;5073541;28;20365;-76
2022/06/05 04:15:47;;;;;;;44.40;17.15;;;;;;;16.92;99.46;101112.28;5091331;28;20111;-76
2022/06/05 04:18:12;;;;;;;38.90;16.30;;;;;;;16.95;100.00;101116.63;5078866;28;20135;-76
2022/06/05 04:20:39;;;;;;;41.33;16.88;;;;;;;16.95;99.62;101111.09;5071635;28;20029;-76
2022/06/05 04:23:08;;;;;;;35.65;16.75;;;;;;;16.99;100.00;101107.88;5057065;28;20043;-76
2022/06/05 04:25:33;;;;;;;33.28;16.05;;;;;;;16.92;99.97;101105.88;5072144;28;20039;-76
2022/06/05 04:27:59;;;;;;;42.90;16.88;;;;;;;17.06;98.93;101116.41;5074638;28;20414;-75
2022/06/05 04:30:26;;;;;;;36.70;17.02;;;;;;;17.03;98.46;101114.81;5104909;28;20066;-76
2022/06/05 04:32:52;;;;;;;32.58;16.85;;;;;;;16.95;99.54;101113.88;5067899;28;20029;-76
2022/06/05 04:35:18;;;;;;;38.95;15.93;;;;;;;16.96;100.00;101112.84;5075702;28;20036;-76
2022/06/05 04:37:44;;;;;;;32.28;15.90;;;;;;;16.96;99.28;101108.19;5075048;28;20040;-77
2022/06/05 04:40:10;;;;;;;36.70;16.15;;;;;;;16.96;100.00;101112.84;5089334;28;20135;-77
2022/06/05 04:42:36;;;;;;;30.00;15.15;;;;;;;16.96;99.90;101105.41;5075182;28;20037;-76
2022/06/05 04:45:03;;;;;;;42.47;15.75;;;;;;;16.89;99.66;101094.13;5071203;28;20086;-76
2022/06/05 04:47:28;;;;;;;30.05;15.88;;;;;;;17.05;99.03;101103.59;5068017;28;20044;-76
2022/06/05 04:49:54;;;;;;;38.22;16.00;;;;;;;17.02;98.82;101110.31;5075039;28;20101;-76
2022/06/05 04:52:19;;;;;;;34.67;15.30;;;;;;;16.95;98.90;101109.19;5071628;28;20039;-76
2022/06/05 04:54:45;;;;;;;30.20;15.30;;;;;;;16.98;99.51;101113.56;5071677;28;20728;-76
2022/06/05 04:57:10;;;;;;;33.20;14.90;;;;;;;16.95;99.66;101106.44;5081024;28;20070;-76
2022/06/05 04:59:37;;;;;;;32.13;16.08;;;;;;;17.00;99.39;101106.81;5090481;28;20463;-76
2022/06/05 05:02:03;;;;;;;31.98;15.90;;;;;;;16.94;100.00;101110.25;5080185;28;20056;-76
2022/06/05 05:04:29;;;;;;;33.70;16.00;;;;;;;17.02;99.72;101110.31;5070798;28;20076;-77
2022/06/05 05:06:54;;;;;;;31.52;15.77;;;;;;;16.94;100.00;101115.78;5073642;28;20046;-77
2022/06/05 05:09:20;;;;;;;38.88;16.75;;;;;;;17.20;98.96;101114.97;5080543;28;20127;-77
2022/06/05 05:11:46;;;;;;;33.13;15.95;;;;;;;17.09;99.29;101127.16;5086720;28;20066;-77
2022/06/05 05:14:11;;;;;;;46.45;17.02;;;;;;;17.07;98.57;101129.22;5085075;28;20115;-77
2022/06/05 05:16:37;;;;;;;35.58;16.80;;;;;;;17.14;99.01;101137.75;5072353;28;20028;-77
2022/06/05 05:19:03;;;;;;;32.35;16.30;;;;;;;17.19;99.65;101127.09;5071055;28;20028;-77
2022/06/05 05:21:28;;;;;;;33.58;16.58;;;;;;;17.08;100.00;101136.47;5049144;28;20083;-77
2022/06/05 05:23:54;;;;;;;38.80;16.48;;;;;;;17.17;100.00;101131.91;5081057;28;20076;-77
2022/06/05 05:26:27;;;;;;;36.63;16.95;;;;;;;17.25;99.19;101138.41;5066772;28;20051;-77
2022/06/05 05:28:54;;;;;;;29.77;16.40;;;;;;;17.20;99.14;101134.34;5078273;28;20044;-77
2022/06/05 05:31:23;;;;;;;34.53;17.20;;;;;;;17.32;98.65;101138.63;5079939;28;20032;-77
2022/06/05 05:33:49;;;;;;;30.83;16.73;;;;;;;17.31;98.46;101138.78;5087928;28;20036;-77
2022/06/05 05:36:17;;;;;;;32.05;16.20;;;;;;;17.34;100.00;101130.16;5079515;28;20455;-77
2022/06/05 05:44:13;;;;;;;38.67;17.92;;;;;;;17.44;98.64;101126.25;5071153;28;20047;-77
2022/06/05 05:46:40;;;;;;;43.33;20.10;;;;;;;17.42;99.32;101139.41;5074458;28;20033;-77
2022/06/05 05:49:05;;;;;;;38.05;19.17;;;;;;;17.46;100.00;101131.66;5079902;28;20040;-77
2022/06/05 05:51:31;;;;;;;46.63;20.67;;;;;;;17.54;99.72;101133.63;5060090;28;20028;-77
2022/06/05 05:53:57;;;;;;;45.53;20.05;;;;;;;17.63;99.75;101133.53;5075155;28;20104;-78
2022/06/05 05:56:22;;;;;;;40.42;20.40;;;;;;;17.67;99.26;101127.66;5071319;28;20047;-78
2022/06/05 05:58:48;;;;;;;39.35;19.83;;;;;;;17.66;99.26;101125.91;5079731;28;20043;-77
2022/06/05 06:01:14;;;;;;;43.78;23.00;;;;;;;17.65;100.00;101122.28;5105971;28;20085;-78
2022/06/05 06:03:39;;;;;;;48.75;22.67;;;;;;;17.57;100.00;101112.00;5077303;28;20456;-79
2022/06/05 06:06:05;;;;;;;41.60;20.90;;;;;;;17.66;99.85;101114.84;5076066;28;20036;-78
2022/06/05 06:08:31;;;;;;;58.95;22.33;;;;;;;17.77;99.10;101111.81;5083550;28;20119;-78
2022/06/05 06:10:57;;;;;;;55.60;23.63;;;;;;;17.68;99.30;101096.19;5078158;28;20079;-78
2022/06/05 06:13:23;;;;;;;44.63;21.38;;;;;;;17.68;99.96;101096.19;5058248;28;20036;-77
2022/06/05 06:15:49;;;;;;;47.40;22.02;;;;;;;17.73;99.54;101091.88;5069971;28;20043;-77
2022/06/05 06:18:15;;;;;;;52.35;20.58;;;;;;;17.72;99.48;101080.97;5066546;28;20032;-77
2022/06/05 06:20:41;;;;;;;48.33;23.83;;;;;;;17.77;99.99;101079.47;5041579;28;20136;-77
2022/06/05 06:23:06;;;;;;;44.20;22.50;;;;;;;17.78;100.00;101081.19;5057822;28;20033;-77
2022/06/05 06:25:32;;;;;;;44.42;21.58;;;;;;;17.85;99.38;101075.00;5062183;28;20479;-77
2022/06/05 06:27:58;;;;;;;48.80;21.42;;;;;;;17.82;100.00;101079.84;5052865;28;20040;-78
2022/06/05 06:30:24;;;;;;;51.47;22.30;;;;;;;17.92;100.00;101065.91;5088832;28;20423;-78
2022/06/05 06:32:49;;;;;;;42.30;21.60;;;;;;;18.06;98.46;101053.31;5059779;28;20086;-78
2022/06/05 06:35:15;;;;;;;43.17;21.00;;;;;;;17.96;99.62;101050.69;5032827;28;20586;-78
2022/06/05 06:37:40;;;;;;;43.60;21.02;;;;;;;18.07;99.78;101046.75;5057896;28;20058;-78
2022/06/05 06:40:07;;;;;;;56.03;21.85;;;;;;;18.19;97.90;101034.31;5083557;28;20535;-78
2022/06/05 06:42:32;;;;;;;47.55;23.05;;;;;;;18.30;97.71;101035.94;5067052;28;20040;-78
2022/06/05 06:44:58;;;;;;;55.72;23.95;;;;;;;18.29;98.52;101028.66;5084826;28;20040;-79
2022/06/05 06:47:23;;;;;;;54.90;23.33;;;;;;;18.34;98.41;101030.91;5074603;28;20055;-78
2022/06/05 06:49:49;;;;;;;54.20;22.60;;;;;;;18.34;98.94;101033.69;5083749;28;20123;-78
2022/06/05 06:52:16;;;;;;;50.17;22.27;;;;;;;18.48;98.64;101037.69;5080986;28;20029;-77
2022/06/05 06:54:41;;;;;;;39.08;22.58;;;;;;;18.48;98.78;101037.69;5078600;28;20025;-75
2022/06/05 06:57:08;;;;;;;52.60;23.80;;;;;;;18.76;96.79;101026.31;5059352;28;20086;-76
2022/06/05 06:59:33;;;;;;;50.67;23.15;;;;;;;18.71;97.59;101029.63;5050631;28;20395;-76
2022/06/05 07:01:59;;;;;;;51.72;23.13;;;;;;;18.80;97.40;101030.50;5080612;28;20092;-75
2022/06/05 07:04:25;;;;;;;49.17;23.88;;;;;;;18.83;97.37;101019.06;5085162;28;20114;-77
2022/06/05 07:06:53;;;;;;;38.83;22.25;;;;;;;19.07;98.04;101004.34;5085373;28;20036;-77
2022/06/05 07:09:19;;;;;;;49.33;23.55;;;;;;;19.23;96.59;100998.81;5038958;28;20035;-77
2022/06/05 07:11:45;;;;;;;51.78;23.60;;;;;;;19.35;94.89;100999.31;5076008;28;20036;-76
2022/06/05 07:14:11;;;;;;;47.58;23.95;;;;;;;19.29;96.44;101000.03;5077629;28;20043;-77
2022/06/05 07:16:38;;;;;;;56.25;24.02;;;;;;;19.45;95.61;100997.22;5075803;28;20035;-77
2022/06/05 07:19:04;;;;;;;51.83;25.02;;;;;;;19.44;96.07;101003.81;5061580;28;20131;-77
2022/06/05 07:21:30;;;;;;;47.95;24.65;;;;;;;19.65;94.87;100983.78;5073113;28;20528;-78
2022/06/05 07:23:57;;;;;;;49.65;24.45;;;;;;;19.61;94.75;100993.53;5064519;28;20044;-77
2022/06/05 07:26:25;;;;;;;47.58;25.92;;;;;;;19.94;92.91;100990.69;5084228;28;20494;-77
2022/06/05 07:28:50;;;;;;;46.70;23.45;;;;;;;19.94;92.48;100981.47;5073061;28;20028;-76
2022/06/05 07:31:17;;;;;;;50.42;25.38;;;;;;;19.92;94.72;100987.22;5057217;28;20136;-76
2022/06/05 07:33:44;;;;;;;55.55;27.88;;;;;;;20.06;93.53;100995.84;5074101;28;20033;-77
2022/06/05 07:36:16;;;;;;;50.30;26.67;;;;;;;20.04;95.51;100989.59;5085797;28;20032;-76
2022/06/05 07:38:41;;;;;;;53.50;28.08;;;;;;;19.82;95.01;100973.53;5089262;28;20024;-77
2022/06/05 07:41:19;;;;;;;48.25;27.63;;;;;;;19.85;95.73;100972.31;5071873;28;20514;-77
2022/06/05 07:43:45;;;;;;;52.08;28.23;;;;;;;19.88;96.07;100976.66;5086771;28;20032;-77
2022/06/05 07:46:12;;;;;;;54.08;28.25;;;;;;;20.09;94.70;100973.25;5079931;28;20043;-77
2022/06/05 07:48:38;;;;;;;55.45;27.33;;;;;;;20.09;93.96;100974.13;5071580;28;20058;-77
2022/06/05 07:56:36;;;;;;;56.47;24.90;;;;;;;20.16;96.80;100964.00;5072762;28;20046;-77
2022/06/05 07:59:02;;;;;;;56.65;26.20;;;;;;;20.36;95.03;100966.31;5087014;28;20040;-76
2022/06/05 08:01:27;;;;;;;52.33;27.23;;;;;;;20.35;94.23;100957.13;5091880;28;20037;-77
2022/06/05 08:03:53;;;;;;;54.83;28.10;;;;;;;20.40;94.29;100956.56;5069100;28;20582;-77
2022/06/05 08:06:19;;;;;;;54.55;26.30;;;;;;;20.48;92.78;100950.06;5050550;28;20111;-77
2022/06/05 08:08:44;;;;;;;52.88;27.55;;;;;;;20.62;94.17;100945.63;5073113;28;20032;-77
2022/06/05 08:11:10;;;;;;;52.05;26.67;;;;;;;20.63;94.56;100953.84;5065758;28;20119;-76
2022/06/05 08:13:35;;;;;;;47.63;26.63;;;;;;;20.58;93.90;100950.72;5069585;28;20064;-77
2022/06/05 08:16:02;;;;;;;54.17;29.23;;;;;;;20.74;93.03;100956.19;5084054;28;20044;-76
2022/06/05 08:18:27;;;;;;;50.63;27.20;;;;;;;20.72;93.77;100947.13;5061541;28;20073;-77
2022/06/05 08:20:53;;;;;;;49.28;27.90;;;;;;;20.80;92.56;100939.78;5068288;28;20121;-76
2022/06/05 08:23:18;;;;;;;51.95;27.02;;;;;;;21.02;92.94;100941.69;5086575;28;20119;-76
2022/06/05 08:25:45;;;;;;;50.10;26.25;;;;;;;21.10;92.94;100943.50;5072633;28;20123;-76
2022/06/05 08:28:11;;;;;;;51.05;26.27;;;;;;;21.19;93.08;100941.53;5068674;28;20462;-76
2022/06/05 08:30:38;;;;;;;48.35;25.45;;;;;;;21.46;91.67;100949.25;5086862;28;20044;-76
2022/06/05 08:33:04;;;;;;;52.15;26.33;;;;;;;21.72;90.22;100952.63;5057539;28;20499;-76
2022/06/05 08:35:29;;;;;;;50.03;26.38;;;;;;;21.66;89.41;100946.78;5072065;28;20043;-77
2022/06/05 08:43:43;;;;;;;47.85;25.33;;;;;;;21.79;90.98;100940.53;5077388;28;20498;-77
2022/06/05 08:46:23;;;;;;;42.85;25.10;;;;;;;22.10;87.78;100944.97;5072415;28;20036;-76
2022/06/05 08:48:54;;;;;;;52.58;24.65;;;;;;;21.83;88.51;100943.78;5087191;28;20134;-76
2022/06/05 08:51:32;;;;;;;50.22;26.90;;;;;;;21.72;88.38;100950.69;5071671;28;20039;-76
2022/06/05 08:54:04;;;;;;;46.03;26.13;;;;;;;21.94;91.08;100942.41;5085428;28;20458;-77
2022/06/05 08:56:45;;;;;;;45.53;24.85;;;;;;;22.02;89.10;100950.66;5075004;28;20024;-76
2022/06/05 08:59:31;;;;;;;41.83;24.65;;;;;;;21.91;87.64;100942.84;5082945;28;20024;-76
2022/06/05 09:02:17;;;;;;;41.70;24.50;;;;;;;21.78;89.15;100944.38;5070783;28;20043;-76
2022/06/05 09:04:54;;;;;;;47.17;26.55;;;;;;;21.77;90.61;100941.78;5054556;28;20039;-77
2022/06/05 09:07:30;;;;;;;46.13;24.48;;;;;;;21.90;89.61;100936.38;5075120;28;20043;-76
2022/06/05 09:10:06;;;;;;;44.88;25.95;;;;;;;21.83;89.80;100938.22;5074465;28;20521;-77
2022/06/05 09:12:45;;;;;;;37.92;24.90;;;;;;;21.99;90.15;100943.56;5072461;28;20020;-77
2022/06/05 09:15:24;;;;;;;45.85;25.33;;;;;;;21.85;90.98;100939.72;5079360;28;20029;-77
2022/06/05 09:17:57;;;;;;;41.83;24.48;;;;;;;21.87;90.38;100938.69;5078012;28;20024;-77
2022/06/05 09:20:46;;;;;;;39.63;25.95;;;;;;;21.72;92.09;100938.69;5082693;28;20031;-77
2022/06/05 09:23:25;;;;;;;38.38;23.95;;;;;;;21.57;93.06;100934.00;5082357;28;20491;-77
2022/06/05 09:25:58;;;;;;;40.92;23.58;;;;;;;21.67;93.43;100933.69;5064877;28;20657;-77
2022/06/05 09:28:55;;;;;;;41.50;25.05;;;;;;;21.79;92.78;100936.84;5078826;28;20028;-76
2022/06/05 09:31:50;;;;;;;42.55;24.42;;;;;;;21.57;93.37;100930.34;5070019;28;20071;-78
2022/06/05 09:34:26;;;;;;;39.88;23.98;;;;;;;21.42;94.08;100921.97;5071363;28;20040;-78
2022/06/05 09:37:19;;;;;;;40.13;23.95;;;;;;;21.38;95.46;100920.59;5081857;28;20115;-79
2022/06/05 09:39:51;;;;;;;48.40;25.00;;;;;;;21.44;95.12;100917.91;5081246;28;20119;-79
2022/06/05 09:42:38;;;;;;;40.63;23.45;;;;;;;21.32;95.90;100913.88;5079656;28;20040;-79
2022/06/05 09:45:13;;;;;;;41.10;25.00;;;;;;;21.30;96.96;100905.72;5063555;28;20397;-79
2022/06/05 09:47:44;;;;;;;38.30;24.52;;;;;;;21.31;95.99;100903.78;5087908;28;20028;-79
2022/06/05 09:50:23;;;;;;;49.58;24.77;;;;;;;21.34;96.79;100906.19;5080325;28;20036;-78
2022/06/05 09:52:50;;;;;;;38.90;24.25;;;;;;;21.38;96.34;100898.31;5074490;28;20032;-77
2022/06/05 09:55:19;;;;;;;45.08;25.55;;;;;;;21.22;98.23;100888.22;5072799;28;20079;-77
2022/06/05 10:00:42;;;;;;;40.30;24.58;;;;;;;21.22;98.27;100888.22;5081087;28;20043;-77
2022/06/05 10:03:18;;;;;;;40.58;24.35;;;;;;;21.24;98.22;100886.13;5082903;28;20064;-78
2022/06/05 10:06:05;;;;;;;45.95;26.48;;;;;;;21.26;98.79;100884.00;5090884;28;20032;-78
2022/06/05 10:08:43;;;;;;;42.72;25.20;;;;;;;21.24;100.00;100886.97;5068668;28;20085;-77
2022/06/05 10:11:38;;;;;;;46.17;25.80;;;;;;;21.04;100.00;100880.25;5071100;28;20032;-77
2022/06/05 10:14:15;;;;;;;40.53;26.38;;;;;;;20.86;100.00;100880.59;5080600;28;20043;-78
2022/06/05 10:16:49;;;;;;;46.15;26.30;;;;;;;20.79;100.00;100882.38;5062451;28;20040;-79
2022/06/05 10:19:48;;;;;;;41.22;26.38;;;;;;;20.75;100.00;100879.97;5086446;28;20114;-78
2022/06/05 10:22:27;;;;;;;43.33;26.25;;;;;;;20.72;100.00;100882.28;5076982;28;20043;-78
2022/06/05 10:25:15;;;;;;;47.05;28.55;;;;;;;20.74;100.00;100883.81;5087255;28;20032;-78
2022/06/05 10:27:59;;;;;;;46.63;27.52;;;;;;;20.64;100.00;100883.19;5026707;28;20086;-78
2022/06/05 10:30:33;;;;;;;46.75;27.50;;;;;;;20.56;100.00;100881.34;5077762;28;20063;-77
2022/06/05 10:33:20;;;;;;;47.45;28.33;;;;;;;20.59;100.00;100880.09;5081665;28;20109;-76
2022/06/05 10:35:57;;;;;;;44.30;27.05;;;;;;;20.54;100.00;100883.41;5080388;28;20044;-77
2022/06/05 10:38:52;;;;;;;45.30;27.30;;;;;;;20.45;100.00;100881.78;5086118;28;20047;-76
2022/06/05 10:41:30;;;;;;;48.45;27.50;;;;;;;20.48;100.00;100878.63;5064351;28;20036;-77
2022/06/05 10:44:31;;;;;;;47.58;27.17;;;;;;;20.35;100.00;100881.16;5069574;28;20526;-76
2022/06/05 10:47:02;;;;;;;45.78;28.20;;;;;;;20.25;100.00;100875.84;5062237;28;20040;-76
2022/06/05 10:49:34;;;;;;;62.53;29.58;;;;;;;20.12;100.00;100875.56;5061333;28;20044;-75
2022/06/05 10:52:24;;;;;;;58.22;33.45;;;;;;;19.83;100.00;100877.16;5078799;28;20047;-75
2022/06/05 10:55:22;;;;;;;55.22;33.30;;;;;;;19.19;100.00;100880.84;5074903;28;20434;-78
2022/06/05 10:58:07;;;;;;;62.08;34.95;;;;;;;18.79;100.00;100874.28;5066117;28;20078;-78
2022/06/05 11:01:03;;;;;;;59.45;36.95;;;;;;;18.63;100.00;100886.25;5065214;28;20051;-78
2022/06/05 11:03:47;;;;;;;72.90;40.25;;;;;;;18.26;100.00;100883.97;5068435;28;20028;-77
2022/06/05 11:06:18;;;;;;;97.07;49.35;;;;;;;18.12;100.00;100877.22;5065899;28;20609;-76
2022/06/05 11:09:25;;;;;;;106.93;47.03;;;;;;;17.90;100.00;100876.78;5065448;28;20047;-75
2022/06/05 11:15:11;;;;;;;84.78;42.83;;;;;;;17.93;100.00;100859.84;5080791;28;20494;-78
2022/06/05 11:17:44;;;;;;;46.17;27.05;;;;;;;17.97;100.00;100858.47;5079754;28;20738;-78
2022/06/05 11:20:22;;;;;;;37.45;23.92;;;;;;;17.95;100.00;100849.44;5077052;28;20032;-77
2022/06/05 11:23:03;;;;;;;51.67;28.67;;;;;;;18.07;100.00;100850.00;5083628;28;20037;-77
2022/06/05 11:25:36;;;;;;;49.35;28.83;;;;;;;18.23;100.00;100848.28;5073937;28;20030;-76
2022/06/05 11:28:20;;;;;;;49.72;29.02;;;;;;;18.16;100.00;100846.19;5074969;28;20036;-77
2022/06/05 11:30:49;;;;;;;38.60;25.77;;;;;;;18.23;100.00;100839.97;5057978;28;20045;-77
2022/06/05 11:33:23;;;;;;;44.03;28.50;;;;;;;18.30;100.00;100832.69;5079717;28;20521;-77
2022/06/05 11:36:26;;;;;;;43.58;27.10;;;;;;;18.37;100.00;100833.75;5073710;28;20495;-77
2022/06/05 11:39:33;;;;;;;64.88;41.58;;;;;;;18.48;100.00;100832.50;5076721;28;20036;-77
2022/06/05 11:42:14;;;;;;;61.95;39.60;;;;;;;18.46;100.00;100831.84;5060983;28;20539;-78
2022/06/05 11:45:03;;;;;;;59.55;38.75;;;;;;;18.65;100.00;100822.28;5081065;28;20032;-78
2022/06/05 11:47:53;;;;;;;67.53;41.33;;;;;;;18.74;100.00;100821.22;5067411;28;20059;-78
2022/06/05 11:50:22;;;;;;;59.90;41.25;;;;;;;18.71;100.00;100816.06;5081732;28;20020;-78
2022/06/05 11:53:21;;;;;;;59.70;42.00;;;;;;;18.72;100.00;100810.28;5079095;28;20480;-78
2022/06/05 11:56:39;;;;;;;71.93;47.90;;;;;;;18.67;100.00;100815.50;5079948;28;20028;-78